createdAt,value
2023-08-17T00:02:25.128Z,46.35
2023-08-17T00:04:57.878Z,46.34
2023-08-17T00:07:30.957Z,47.00
2023-08-17T00:10:05.941Z,47.82
2023-08-17T00:12:38.917Z,48.19
2023-08-17T00:15:12.272Z,48.52
2023-08-17T00:17:45.161Z,48.50
2023-08-17T00:20:18.057Z,47.63
2023-08-17T00:22:50.954Z,48.76
2023-08-17T00:25:25.053Z,47.89
2023-08-17T00:27:57.928Z,48.82
2023-08-17T00:30:31.037Z,49.88
2023-08-17T00:33:03.797Z,48.79
2023-08-17T00:35:36.712Z,49.79
2023-08-17T00:38:09.381Z,49.06
2023-08-17T00:40:43.765Z,49.78
2023-08-17T00:43:16.714Z,50.38
2023-08-17T00:45:49.893Z,50.40
2023-08-17T00:48:22.848Z,50.85
2023-08-17T00:50:56.046Z,50.12
2023-08-17T00:53:31.576Z,50.89
2023-08-17T00:56:08.012Z,51.47
2023-08-17T00:58:41.243Z,51.74
2023-08-17T01:01:15.192Z,51.78
2023-08-17T01:03:48.191Z,51.24
2023-08-17T01:06:23.248Z,51.08
2023-08-17T01:08:57.010Z,50.79
2023-08-17T01:11:38.574Z,50.88
2023-08-17T01:14:21.994Z,50.69
2023-08-17T01:17:02.688Z,50.82
2023-08-17T01:19:36.033Z,50.79
2023-08-17T01:22:10.946Z,50.66
2023-08-17T01:24:45.158Z,51.22
2023-08-17T01:27:18.266Z,51.17
2023-08-17T01:29:51.261Z,50.99
2023-08-17T01:32:28.974Z,50.74
2023-08-17T01:35:14.034Z,51.48
2023-08-17T01:37:47.426Z,51.30
2023-08-17T01:40:23.959Z,51.80
2023-08-17T01:42:57.679Z,52.31
2023-08-17T01:45:30.743Z,52.32
2023-08-17T01:48:03.785Z,52.50
2023-08-17T01:50:37.571Z,52.54
2023-08-17T01:53:10.996Z,51.82
2023-08-17T01:55:45.283Z,52.60
2023-08-17T01:58:18.200Z,52.92
2023-08-17T02:00:50.974Z,51.80
2023-08-17T02:03:23.977Z,52.92
2023-08-17T02:05:57.877Z,51.96
2023-08-17T02:08:31.471Z,52.83
2023-08-17T02:11:05.752Z,53.47
2023-08-17T02:13:38.705Z,53.93
2023-08-17T02:16:11.419Z,53.04
2023-08-17T02:18:44.410Z,53.99
2023-08-17T02:21:17.194Z,52.82
2023-08-17T02:23:50.206Z,53.83
2023-08-17T02:26:24.221Z,53.23
2023-08-17T02:28:57.157Z,53.90
2023-08-17T02:31:31.120Z,54.63
2023-08-17T02:34:06.482Z,54.42
2023-08-17T02:36:39.672Z,54.69
2023-08-17T02:39:12.474Z,54.05
2023-08-17T02:41:50.075Z,54.35
2023-08-17T02:44:23.002Z,54.64
2023-08-17T02:46:56.001Z,54.78
2023-08-17T02:49:28.779Z,54.17
2023-08-17T02:52:03.347Z,54.87
2023-08-17T02:54:36.135Z,54.29
2023-08-17T02:57:10.560Z,55.28
2023-08-17T02:59:43.564Z,55.45
2023-08-17T03:02:16.302Z,54.65
2023-08-17T03:04:49.198Z,55.28
2023-08-17T03:07:22.075Z,55.73
2023-08-17T03:09:54.963Z,55.77
2023-08-17T03:12:29.244Z,55.52
2023-08-17T03:15:02.366Z,55.60
2023-08-17T03:17:35.968Z,55.83
2023-08-17T03:20:10.590Z,55.39
2023-08-17T03:22:43.469Z,55.55
2023-08-17T03:25:16.439Z,55.07
2023-08-17T03:27:51.161Z,55.12
2023-08-17T03:30:24.081Z,55.19
2023-08-17T03:32:57.455Z,55.12
2023-08-17T03:35:30.374Z,55.08
2023-08-17T03:38:03.359Z,55.10
2023-08-17T03:40:36.086Z,54.50
2023-08-17T03:43:10.535Z,54.75
2023-08-17T03:45:44.243Z,54.82
2023-08-17T03:48:17.230Z,54.75
2023-08-17T03:50:53.418Z,54.68
2023-08-17T03:53:26.384Z,55.07
2023-08-17T03:55:59.146Z,54.45
2023-08-17T03:58:35.916Z,54.63
2023-08-17T04:01:09.135Z,54.32
2023-08-17T04:03:41.894Z,53.87
2023-08-17T04:06:15.386Z,54.33
2023-08-17T04:08:49.342Z,54.53
2023-08-17T04:11:22.117Z,54.25
2023-08-17T04:13:56.644Z,54.64
2023-08-17T04:16:29.598Z,54.89
2023-08-17T04:19:02.492Z,54.34
2023-08-17T04:21:36.132Z,54.73
2023-08-17T04:24:09.534Z,54.82
2023-08-17T04:26:42.481Z,55.17
2023-08-17T04:29:16.882Z,55.32
2023-08-17T04:31:50.390Z,55.39
2023-08-17T04:34:23.565Z,55.47
2023-08-17T04:36:56.448Z,55.58
2023-08-17T04:39:29.446Z,55.19
2023-08-17T04:42:04.806Z,55.66
2023-08-17T04:44:41.566Z,55.34
2023-08-17T04:47:14.479Z,55.45
2023-08-17T04:49:48.622Z,55.27
2023-08-17T04:52:21.491Z,55.55
2023-08-17T04:54:54.426Z,55.11
2023-08-17T04:57:28.157Z,55.22
2023-08-17T05:00:04.920Z,55.33
2023-08-17T05:02:38.117Z,55.00
2023-08-17T05:05:12.474Z,55.13
2023-08-17T05:07:46.952Z,54.80
2023-08-17T05:10:20.797Z,54.98
2023-08-17T05:12:54.481Z,54.61
2023-08-17T05:15:28.809Z,54.52
2023-08-17T05:18:02.936Z,54.63
2023-08-17T05:20:36.076Z,54.48
2023-08-17T05:23:09.058Z,54.05
2023-08-17T05:25:41.946Z,53.94
2023-08-17T05:28:14.843Z,54.28
2023-08-17T05:30:49.243Z,54.17
2023-08-17T05:33:22.289Z,54.03
2023-08-17T05:35:56.253Z,53.59
2023-08-17T05:38:29.245Z,53.66
2023-08-17T05:41:03.097Z,53.29
2023-08-17T05:43:36.077Z,53.60
2023-08-17T05:46:10.422Z,53.19
2023-08-17T05:48:43.408Z,52.91
2023-08-17T05:51:16.173Z,52.95
2023-08-17T05:53:49.122Z,52.81
2023-08-17T05:56:22.075Z,52.60
2023-08-17T05:58:55.324Z,52.29
2023-08-17T06:01:29.632Z,52.50
2023-08-17T06:04:03.427Z,52.62
2023-08-17T06:06:37.542Z,52.84
2023-08-17T06:09:10.639Z,52.72
2023-08-17T06:11:49.635Z,52.42
2023-08-17T06:14:23.484Z,52.83
2023-08-17T06:16:58.137Z,52.88
2023-08-17T06:19:31.396Z,52.36
2023-08-17T06:22:04.674Z,52.68
2023-08-17T06:24:37.973Z,52.62
2023-08-17T06:27:11.260Z,52.44
2023-08-17T06:29:45.148Z,52.55
2023-08-17T06:32:19.725Z,52.03
2023-08-17T06:34:55.264Z,52.44
2023-08-17T06:37:28.833Z,52.04
2023-08-17T06:40:02.287Z,52.40
2023-08-17T06:42:35.642Z,52.07
2023-08-17T06:45:10.083Z,51.86
2023-08-17T06:47:44.782Z,51.90
2023-08-17T06:50:18.014Z,51.58
2023-08-17T06:52:51.283Z,51.60
2023-08-17T06:55:24.457Z,51.69
2023-08-17T06:57:57.725Z,51.38
2023-08-17T07:00:31.187Z,51.24
2023-08-17T07:03:06.680Z,50.25
2023-08-17T07:05:39.969Z,50.26
2023-08-17T07:08:14.571Z,49.83
2023-08-17T07:11:05.363Z,49.08
2023-08-17T07:13:41.544Z,49.04
2023-08-17T07:16:15.557Z,48.74
2023-08-17T07:18:53.204Z,48.20
2023-08-17T07:21:27.251Z,47.82
2023-08-17T07:24:00.644Z,47.29
2023-08-17T07:26:33.869Z,47.24
2023-08-17T07:29:07.184Z,46.84
2023-08-17T07:31:42.374Z,46.89
2023-08-17T07:34:18.614Z,46.52
2023-08-17T07:36:51.826Z,46.82
2023-08-17T07:39:25.249Z,46.40
2023-08-17T07:41:58.564Z,46.16
2023-08-17T07:44:32.671Z,46.07
2023-08-17T07:47:06.192Z,45.58
2023-08-17T07:49:40.956Z,45.44
2023-08-17T07:52:16.865Z,44.93
2023-08-17T07:54:50.134Z,44.96
2023-08-17T07:57:23.508Z,45.02
2023-08-17T07:59:56.780Z,44.55
2023-08-17T08:02:54.715Z,45.01
2023-08-17T08:05:30.196Z,45.57
2023-08-17T08:08:03.450Z,45.63
2023-08-17T08:10:36.759Z,45.86
2023-08-17T08:13:09.968Z,45.55
2023-08-17T08:15:43.215Z,46.04
2023-08-17T08:18:16.528Z,45.75
2023-08-17T08:20:51.385Z,46.02
2023-08-17T08:23:24.731Z,45.75
2023-08-17T08:25:59.334Z,45.30
2023-08-17T08:28:32.611Z,44.83
2023-08-17T08:31:06.259Z,44.37
2023-08-17T08:33:39.605Z,43.37
2023-08-17T08:36:14.239Z,41.31
2023-08-17T08:38:47.498Z,39.63
2023-08-17T08:41:22.346Z,37.74
2023-08-17T08:43:55.880Z,36.48
2023-08-17T08:46:33.940Z,35.85
2023-08-17T08:49:08.706Z,35.51
2023-08-17T08:51:46.648Z,35.16
2023-08-17T08:54:23.622Z,35.05
2023-08-17T08:57:01.703Z,34.89
2023-08-17T08:59:38.054Z,34.84
2023-08-17T09:02:13.649Z,35.86
2023-08-17T09:04:47.759Z,36.14
2023-08-17T09:07:24.823Z,37.24
2023-08-17T09:09:58.773Z,38.27
2023-08-17T09:12:39.489Z,39.06
2023-08-17T09:15:13.556Z,38.70
2023-08-17T09:17:48.954Z,38.99
2023-08-17T09:20:40.048Z,38.91
2023-08-17T09:23:15.666Z,39.42
2023-08-17T09:25:50.321Z,37.70
2023-08-17T09:28:23.381Z,37.76
2023-08-17T09:30:57.541Z,36.83
2023-08-17T09:33:32.863Z,35.46
2023-08-17T09:36:06.054Z,33.94
2023-08-17T09:38:40.504Z,31.06
2023-08-17T09:41:14.894Z,30.31
2023-08-17T09:43:48.382Z,28.87
2023-08-17T09:46:21.487Z,27.59
2023-08-17T09:48:55.905Z,27.24
2023-08-17T09:51:28.965Z,26.68
2023-08-17T09:54:05.141Z,25.92
2023-08-17T09:56:39.677Z,24.78
2023-08-17T09:59:12.589Z,24.36
2023-08-17T10:01:48.257Z,23.77
2023-08-17T10:04:24.241Z,23.60
2023-08-17T10:07:02.024Z,23.86
2023-08-17T10:09:41.209Z,22.77
2023-08-17T10:12:18.442Z,22.42
2023-08-17T10:14:54.115Z,22.17
2023-08-17T10:17:29.179Z,21.90
2023-08-17T10:20:03.737Z,21.16
2023-08-17T10:22:44.239Z,20.95
2023-08-17T10:25:19.128Z,20.84
2023-08-17T10:30:32.817Z,20.94
2023-08-17T10:33:07.220Z,20.23
2023-08-17T10:35:41.673Z,19.53
2023-08-17T10:38:14.922Z,19.08
2023-08-17T10:41:17.822Z,18.87
2023-08-17T10:43:58.714Z,18.84
2023-08-17T10:46:37.043Z,19.56
2023-08-17T10:49:26.937Z,19.78
2023-08-17T10:52:04.735Z,19.10
2023-08-17T10:54:41.261Z,19.09
2023-08-17T10:57:36.130Z,19.15
2023-08-17T11:00:25.406Z,19.45
2023-08-17T11:03:02.742Z,18.86
2023-08-17T11:05:44.752Z,18.84
2023-08-17T11:08:23.106Z,20.10
2023-08-17T11:11:06.009Z,19.39
2023-08-17T11:13:42.017Z,19.35
2023-08-17T11:16:18.730Z,19.91
2023-08-17T11:18:52.212Z,20.01
2023-08-17T11:21:25.391Z,20.40
2023-08-17T11:23:59.888Z,21.31
2023-08-17T11:26:35.352Z,21.59
2023-08-17T11:29:13.033Z,21.20
2023-08-17T11:31:51.132Z,22.14
2023-08-17T11:34:24.301Z,22.13
2023-08-17T11:36:59.884Z,22.28
2023-08-17T11:39:37.937Z,23.22
2023-08-17T11:42:13.559Z,24.73
2023-08-17T11:44:54.179Z,24.27
2023-08-17T11:47:32.592Z,24.52
2023-08-17T11:50:19.966Z,24.13
2023-08-17T11:52:54.545Z,24.83
2023-08-17T11:55:27.801Z,24.62
2023-08-17T11:58:09.761Z,24.98
2023-08-17T12:00:46.652Z,24.53
2023-08-17T12:03:20.610Z,25.08
2023-08-17T12:05:53.665Z,25.17
2023-08-17T12:08:26.744Z,25.54
2023-08-17T12:10:59.931Z,26.23
2023-08-17T12:13:35.975Z,24.40
2023-08-17T12:16:17.259Z,24.71
2023-08-17T12:18:50.586Z,24.44
2023-08-17T12:21:24.548Z,24.99
2023-08-17T12:23:57.706Z,24.34
2023-08-17T12:26:31.075Z,25.14
2023-08-17T12:29:07.223Z,24.65
2023-08-17T12:31:41.687Z,25.19
2023-08-17T12:34:14.646Z,25.83
2023-08-17T12:36:47.736Z,26.51
2023-08-17T12:39:20.688Z,26.96
2023-08-17T12:41:53.561Z,27.72
2023-08-17T12:44:26.527Z,26.85
2023-08-17T12:47:01.034Z,26.89
2023-08-17T12:52:11.944Z,26.84
2023-08-17T12:54:45.027Z,28.01
2023-08-17T12:57:17.977Z,27.53
2023-08-17T12:59:50.878Z,28.18
2023-08-17T13:02:26.102Z,28.25
2023-08-17T13:04:59.454Z,27.35
2023-08-17T13:07:32.522Z,27.41
2023-08-17T13:10:06.024Z,28.02
2023-08-17T13:12:38.936Z,28.29
2023-08-17T13:15:12.083Z,28.24
2023-08-17T13:17:46.663Z,29.05
2023-08-17T13:20:19.632Z,29.54
2023-08-17T13:22:52.628Z,30.31
2023-08-17T13:25:25.610Z,29.83
2023-08-17T13:27:58.603Z,28.73
2023-08-17T13:30:31.522Z,28.65
2023-08-17T13:33:07.626Z,29.07
2023-08-17T13:35:41.016Z,28.51
2023-08-17T13:38:15.868Z,28.83
2023-08-17T13:40:51.360Z,28.35
2023-08-17T13:43:24.412Z,27.37
2023-08-17T13:45:57.331Z,28.34
2023-08-17T13:48:31.705Z,27.17
2023-08-17T13:51:04.729Z,26.73
2023-08-17T13:53:37.922Z,26.80
2023-08-17T13:56:13.529Z,26.85
2023-08-17T13:58:46.528Z,26.44
2023-08-17T14:01:19.831Z,26.92
2023-08-17T14:03:54.278Z,27.23
2023-08-17T14:06:27.288Z,26.86
2023-08-17T14:09:00.208Z,27.20
2023-08-17T14:11:33.394Z,27.53
2023-08-17T14:14:08.432Z,27.26
2023-08-17T14:16:41.625Z,27.49
2023-08-17T14:19:18.711Z,27.30
2023-08-17T14:21:52.302Z,27.65
2023-08-17T14:24:25.195Z,27.61
2023-08-17T14:26:59.306Z,27.39
2023-08-17T14:29:32.232Z,27.09
2023-08-17T14:32:05.587Z,27.02
2023-08-17T14:34:39.930Z,27.57
2023-08-17T14:37:12.838Z,27.82
2023-08-17T14:39:45.825Z,27.24
2023-08-17T14:42:18.749Z,27.00
2023-08-17T14:44:51.641Z,27.10
2023-08-17T14:47:24.951Z,27.28
2023-08-17T14:49:59.325Z,26.90
2023-08-17T14:52:34.468Z,27.27
2023-08-17T14:55:08.249Z,27.22
2023-08-17T14:57:41.083Z,27.15
2023-08-17T15:00:17.018Z,27.31
2023-08-17T15:02:50.840Z,27.28
2023-08-17T15:05:28.856Z,27.20
2023-08-17T15:08:02.157Z,27.10
2023-08-17T15:10:35.527Z,27.56
2023-08-17T15:13:11.397Z,26.89
2023-08-17T15:15:44.636Z,27.27
2023-08-17T15:18:17.662Z,26.70
2023-08-17T15:20:51.978Z,26.90
2023-08-17T15:23:24.850Z,26.91
2023-08-17T15:25:57.789Z,26.53
2023-08-17T15:28:32.932Z,26.65
2023-08-17T15:31:06.751Z,26.97
2023-08-17T15:33:39.724Z,26.74
2023-08-17T15:36:14.039Z,27.05
2023-08-17T15:38:46.906Z,26.57
2023-08-17T15:41:20.435Z,27.06
2023-08-17T15:43:53.381Z,27.01
2023-08-17T15:46:26.481Z,27.13
2023-08-17T15:48:59.660Z,27.22
2023-08-17T15:51:34.008Z,27.05
2023-08-17T15:54:07.205Z,27.15
2023-08-17T15:56:40.220Z,27.93
2023-08-17T15:59:13.364Z,28.32
2023-08-17T16:01:46.358Z,28.25
2023-08-17T16:04:19.386Z,28.66
2023-08-17T16:06:53.761Z,29.02
2023-08-17T16:09:30.764Z,29.09
2023-08-17T16:12:04.225Z,29.10
2023-08-17T16:14:37.176Z,29.50
2023-08-17T16:17:10.169Z,29.62
2023-08-17T16:19:43.121Z,29.94
2023-08-17T16:22:17.696Z,30.12
2023-08-17T16:24:50.611Z,30.23
2023-08-17T16:27:23.632Z,30.50
2023-08-17T16:29:56.602Z,30.41
2023-08-17T16:32:30.178Z,30.54
2023-08-17T16:35:03.192Z,30.85
2023-08-17T16:37:40.934Z,31.05
2023-08-17T16:40:27.702Z,31.14
2023-08-17T16:43:05.517Z,31.35
2023-08-17T16:45:40.646Z,31.36
2023-08-17T16:48:13.645Z,31.48
2023-08-17T16:50:46.762Z,31.40
2023-08-17T16:53:21.707Z,32.09
2023-08-17T16:55:55.777Z,32.54
2023-08-17T16:58:29.007Z,32.99
2023-08-17T17:01:03.956Z,33.61
2023-08-17T17:03:38.752Z,34.23
2023-08-17T17:06:14.778Z,35.17
2023-08-17T17:08:49.009Z,35.64
2023-08-17T17:11:22.000Z,36.31
2023-08-17T17:13:57.597Z,36.72
2023-08-17T17:16:31.600Z,37.17
2023-08-17T17:19:04.557Z,37.87
2023-08-17T17:21:37.420Z,37.98
2023-08-17T17:24:11.829Z,38.17
2023-08-17T17:26:44.664Z,37.94
2023-08-17T17:29:19.155Z,38.43
2023-08-17T17:31:52.998Z,39.10
2023-08-17T17:34:25.920Z,39.45
2023-08-17T17:36:58.774Z,40.13
2023-08-17T17:39:33.964Z,40.40
2023-08-17T17:42:07.227Z,40.76
2023-08-17T17:44:40.100Z,41.43
2023-08-17T17:47:12.842Z,40.35
2023-08-17T17:49:45.772Z,41.60
2023-08-17T17:52:19.363Z,42.42
2023-08-17T17:54:53.582Z,42.55
2023-08-17T17:57:26.888Z,42.84
2023-08-17T18:00:00.433Z,43.00
2023-08-17T18:02:33.423Z,42.90
2023-08-17T18:05:08.104Z,43.33
2023-08-17T18:07:41.189Z,43.22
2023-08-17T18:10:15.726Z,43.63
2023-08-17T18:12:48.673Z,43.37
2023-08-17T18:15:21.562Z,42.67
2023-08-17T18:17:54.498Z,43.86
2023-08-17T18:20:27.878Z,44.34
2023-08-17T18:23:02.013Z,44.51
2023-08-17T18:25:36.365Z,44.83
2023-08-17T18:28:09.547Z,44.86
2023-08-17T18:30:42.471Z,44.95
2023-08-17T18:33:15.210Z,43.68
2023-08-17T18:35:48.180Z,44.31
2023-08-17T18:38:20.882Z,43.47
2023-08-17T18:40:55.084Z,44.15
2023-08-17T18:43:27.997Z,44.18
2023-08-17T18:46:00.690Z,43.35
2023-08-17T18:48:33.752Z,43.76
2023-08-17T18:51:06.755Z,44.01
2023-08-17T18:53:39.612Z,43.71
2023-08-17T18:56:13.662Z,43.16
2023-08-17T18:58:46.552Z,43.81
2023-08-17T19:01:19.480Z,43.59
2023-08-17T19:03:52.650Z,43.92
2023-08-17T19:06:25.613Z,43.98
2023-08-17T19:08:58.369Z,43.14
2023-08-17T19:11:32.637Z,43.56
2023-08-17T19:14:07.741Z,43.89
2023-08-17T19:16:40.676Z,43.93
2023-08-17T19:19:13.335Z,42.97
2023-08-17T19:21:46.271Z,43.69
2023-08-17T19:24:19.296Z,44.02
2023-08-17T19:26:53.694Z,43.98
2023-08-17T19:29:26.841Z,44.29
2023-08-17T19:31:59.970Z,44.35
2023-08-17T19:34:33.312Z,44.28
2023-08-17T19:37:06.590Z,44.04
2023-08-17T19:39:39.452Z,44.50
2023-08-17T19:42:13.761Z,44.66
2023-08-17T19:44:46.735Z,44.42
2023-08-17T19:47:21.260Z,43.72
2023-08-17T19:49:54.251Z,44.37
2023-08-17T19:52:27.033Z,43.94
2023-08-17T19:55:00.001Z,44.51
2023-08-17T19:57:34.033Z,43.84
2023-08-17T20:00:10.031Z,44.68
2023-08-17T20:02:52.856Z,44.81
2023-08-17T20:05:25.891Z,45.25
2023-08-17T20:07:58.731Z,44.54
2023-08-17T20:10:31.883Z,45.76
2023-08-17T20:13:06.398Z,46.40
2023-08-17T20:15:39.427Z,46.35
2023-08-17T20:18:12.812Z,45.35
2023-08-17T20:20:51.119Z,44.99
2023-08-17T20:23:24.568Z,46.46
2023-08-17T20:25:58.418Z,46.79
2023-08-17T20:28:32.755Z,47.27
2023-08-17T20:31:06.215Z,47.33
2023-08-17T20:33:40.278Z,47.79
2023-08-17T20:36:17.787Z,47.65
2023-08-17T20:38:53.037Z,47.79
2023-08-17T20:41:25.960Z,47.83
2023-08-17T20:44:00.247Z,47.98
2023-08-17T20:46:33.165Z,48.34
2023-08-17T20:49:06.224Z,47.74
2023-08-17T20:51:40.153Z,47.90
2023-08-17T20:54:15.445Z,48.11
2023-08-17T20:56:48.329Z,47.95
2023-08-17T20:59:22.551Z,48.16
2023-08-17T21:01:55.479Z,48.08
2023-08-17T21:04:28.205Z,47.29
2023-08-17T21:07:01.066Z,47.57
2023-08-17T21:09:34.020Z,47.51
2023-08-17T21:12:07.561Z,48.03
2023-08-17T21:14:41.600Z,47.43
2023-08-17T21:17:14.556Z,47.63
2023-08-17T21:19:47.249Z,46.95
2023-08-17T21:22:20.153Z,47.33
2023-08-17T21:24:52.884Z,46.95
2023-08-17T21:27:26.038Z,47.76
2023-08-17T21:30:00.821Z,47.57
2023-08-17T21:32:33.716Z,47.89
2023-08-17T21:35:07.530Z,48.47
2023-08-17T21:37:41.538Z,48.53
2023-08-17T21:40:14.465Z,49.07
2023-08-17T21:42:47.140Z,48.21
2023-08-17T21:45:21.608Z,49.03
2023-08-17T21:47:54.492Z,49.81
2023-08-17T21:50:27.416Z,49.89
2023-08-17T21:53:00.292Z,49.87
2023-08-17T21:55:33.180Z,50.19
2023-08-17T21:58:06.390Z,49.70
2023-08-17T22:00:42.734Z,50.04
2023-08-17T22:03:17.520Z,50.39
2023-08-17T22:05:50.634Z,50.45
2023-08-17T22:08:23.787Z,50.64
2023-08-17T22:10:56.722Z,50.91
2023-08-17T22:13:29.727Z,50.57
2023-08-17T22:16:03.890Z,49.80
2023-08-17T22:18:36.747Z,50.41
2023-08-17T22:21:09.715Z,50.38
2023-08-17T22:23:42.398Z,49.78
2023-08-17T22:26:15.271Z,49.94
2023-08-17T22:28:48.139Z,50.19
2023-08-17T22:31:22.455Z,50.27
2023-08-17T22:33:55.368Z,49.78
2023-08-17T22:36:28.766Z,50.14
2023-08-17T22:39:01.622Z,50.29
2023-08-17T22:41:34.551Z,50.14
2023-08-17T22:44:06.707Z,50.29
2023-08-17T22:46:40.994Z,50.61
2023-08-17T22:49:13.850Z,50.43
2023-08-17T22:51:47.072Z,50.50
2023-08-17T22:54:20.027Z,50.56
2023-08-17T22:56:53.653Z,50.73
2023-08-17T22:59:27.538Z,50.65
2023-08-17T23:02:02.024Z,50.57
2023-08-17T23:04:35.039Z,50.23
2023-08-17T23:07:07.932Z,49.73
2023-08-17T23:09:40.907Z,49.41
2023-08-17T23:12:14.725Z,49.36
2023-08-17T23:14:47.686Z,49.44
2023-08-17T23:17:21.882Z,49.45
2023-08-17T23:19:54.955Z,48.91
2023-08-17T23:22:27.659Z,48.65
2023-08-17T23:25:04.087Z,48.87
2023-08-17T23:27:37.039Z,49.02
2023-08-17T23:30:11.304Z,48.57
2023-08-17T23:32:45.662Z,49.47
2023-08-17T23:35:18.700Z,49.36
2023-08-17T23:37:51.402Z,49.18
2023-08-17T23:40:24.291Z,50.02
2023-08-17T23:42:57.187Z,50.78
2023-08-17T23:45:30.111Z,51.24
2023-08-17T23:48:04.771Z,51.51
2023-08-17T23:50:37.983Z,51.91
2023-08-17T23:53:10.680Z,50.88
2023-08-17T23:55:43.554Z,51.53
2023-08-17T23:58:17.507Z,51.32
